Time;durP1;ratioP1;P1;durP2;ratioP2;P2;SDS_P1;SDS_P2;PMS_P1;PMS_P2;Temp;Humidity;BMP_temperature;BMP_pressure;BME280_temperature;BME280_humidity;BME280_pressure;Samples;Min_cycle;Max_cycle;Signal;HPM_P1;HPM_P2
2023/01/21 00:02:14;;;;;;;35.58;19.52;;;;;;;;;;5064538;28;20395;-70
2023/01/21 00:04:40;;;;;;;35.35;21.45;;;;;;;;;;5056591;28;20063;-70
2023/01/21 00:07:07;;;;;;;31.38;18.60;;;;;;;;;;5063159;28;20079;-70
2023/01/21 00:09:34;;;;;;;41.67;21.90;;;;;;;;;;5065441;28;20071;-70
2023/01/21 00:12:03;;;;;;;39.90;21.92;;;;;;;;;;5046813;28;20049;-70
2023/01/21 00:14:29;;;;;;;37.40;21.23;;;;;;;;;;5058844;28;20132;-70
2023/01/21 00:16:57;;;;;;;32.17;19.05;;;;;;;;;;5067670;28;20040;-70
2023/01/21 00:19:23;;;;;;;34.80;20.58;;;;;;;;;;5063570;28;20052;-70
2023/01/21 00:21:49;;;;;;;34.13;20.88;;;;;;;;;;5060712;28;20089;-69
2023/01/21 00:24:16;;;;;;;34.35;19.70;;;;;;;;;;5064023;28;20028;-69
2023/01/21 00:26:42;;;;;;;39.38;22.45;;;;;;;;;;5067213;28;20036;-70
2023/01/21 00:29:09;;;;;;;36.47;20.80;;;;;;;;;;5069313;28;20043;-70
2023/01/21 00:31:35;;;;;;;35.70;19.15;;;;;;;;;;5064612;28;20028;-70
2023/01/21 00:34:02;;;;;;;35.47;19.98;;;;;;;;;;5057354;28;20041;-70
2023/01/21 00:36:28;;;;;;;34.15;21.70;;;;;;;;;;5060841;28;20047;-70
2023/01/21 00:38:55;;;;;;;34.95;21.67;;;;;;;;;;5064590;28;20040;-70
2023/01/21 00:41:23;;;;;;;36.03;20.75;;;;;;;;;;5058560;28;20041;-70
2023/01/21 00:43:49;;;;;;;35.22;22.08;;;;;;;;;;5059007;28;20036;-70
2023/01/21 00:46:15;;;;;;;38.63;22.02;;;;;;;;;;5069110;28;20491;-70
2023/01/21 00:48:42;;;;;;;35.85;23.25;;;;;;;;;;5061506;28;20123;-70
2023/01/21 00:51:08;;;;;;;40.88;22.05;;;;;;;;;;5058830;28;20029;-70
2023/01/21 00:53:37;;;;;;;33.08;20.30;;;;;;;;;;5071285;28;20043;-69
2023/01/21 00:56:07;;;;;;;31.65;19.50;;;;;;;;;;5067723;28;20041;-69
2023/01/21 00:58:33;;;;;;;36.03;20.75;;;;;;;;;;5064297;28;20070;-69
2023/01/21 01:01:13;;;;;;;38.13;21.08;;;;;;;;;;5043893;28;20583;-69
2023/01/21 01:03:40;;;;;;;44.65;22.65;;;;;;;;;;5058335;28;20199;-70
2023/01/21 01:06:07;;;;;;;34.33;21.75;;;;;;;;;;5057868;28;20422;-69
2023/01/21 01:08:34;;;;;;;35.28;21.15;;;;;;;;;;5060367;28;20510;-70
2023/01/21 01:11:00;;;;;;;41.33;20.67;;;;;;;;;;5061593;28;20534;-70
2023/01/21 01:13:27;;;;;;;33.88;19.75;;;;;;;;;;5064037;28;20479;-69
2023/01/21 01:15:54;;;;;;;38.88;20.83;;;;;;;;;;5059784;28;20053;-69
2023/01/21 01:18:24;;;;;;;33.28;20.63;;;;;;;;;;5054905;28;20061;-70
2023/01/21 01:20:51;;;;;;;34.05;20.95;;;;;;;;;;5059408;28;20705;-70
2023/01/21 01:23:17;;;;;;;35.70;19.58;;;;;;;;;;5061139;28;20130;-69
2023/01/21 01:25:43;;;;;;;34.53;21.08;;;;;;;;;;5064347;28;20048;-70
2023/01/21 01:28:10;;;;;;;39.33;23.08;;;;;;;;;;5058917;28;20036;-69
2023/01/21 01:30:36;;;;;;;30.25;17.90;;;;;;;;;;5068585;28;20045;-68
2023/01/21 01:33:02;;;;;;;35.35;19.90;;;;;;;;;;5060593;28;20060;-70
2023/01/21 01:35:28;;;;;;;36.40;22.55;;;;;;;;;;5059330;28;20128;-70
2023/01/21 01:37:54;;;;;;;34.88;20.38;;;;;;;;;;5061774;28;20036;-69
2023/01/21 01:40:20;;;;;;;35.30;19.13;;;;;;;;;;5063494;28;20029;-70
2023/01/21 01:42:46;;;;;;;35.95;21.92;;;;;;;;;;5060498;28;20154;-70
2023/01/21 01:45:19;;;;;;;33.08;20.20;;;;;;;;;;5067755;28;20047;-69
2023/01/21 01:47:45;;;;;;;;;;;;;;;;;;5054111;28;20483;-70
2023/01/21 01:50:13;;;;;;;29.77;18.27;;;;;;;;;;5063948;28;19923;-70
2023/01/21 01:52:41;;;;;;;31.50;19.50;;;;;;;;;;5066530;28;20033;-70
2023/01/21 01:55:08;;;;;;;37.58;21.58;;;;;;;;;;5063446;28;20032;-69
2023/01/21 01:57:37;;;;;;;37.55;21.38;;;;;;;;;;5058714;28;20575;-70
2023/01/21 02:00:05;;;;;;;36.72;20.88;;;;;;;;;;5059806;28;20051;-70
2023/01/21 02:02:31;;;;;;;34.88;20.75;;;;;;;;;;5060112;28;20044;-70
2023/01/21 02:04:59;;;;;;;34.58;20.90;;;;;;;;;;5057452;28;20119;-69
2023/01/21 02:07:27;;;;;;;44.35;23.58;;;;;;;;;;5066766;28;20049;-70
2023/01/21 02:09:53;;;;;;;33.63;19.92;;;;;;;;;;5064587;28;20491;-69
2023/01/21 02:12:19;;;;;;;44.40;22.38;;;;;;;;;;5065565;28;20040;-70
2023/01/21 02:14:46;;;;;;;36.80;20.15;;;;;;;;;;5058267;28;20048;-70
2023/01/21 02:17:20;;;;;;;35.47;19.92;;;;;;;;;;5060804;28;20124;-70
2023/01/21 02:19:46;;;;;;;37.88;22.10;;;;;;;;;;5062703;28;20040;-70
2023/01/21 02:22:31;;;;;;;39.47;22.63;;;;;;;;;;5060147;28;20036;-69
2023/01/21 02:25:16;;;;;;;33.78;21.17;;;;;;;;;;5070115;28;20041;-69
2023/01/21 02:27:46;;;;;;;39.42;20.20;;;;;;;;;;5057922;28;20402;-69
2023/01/21 02:30:13;;;;;;;39.85;21.02;;;;;;;;;;5065497;28;20048;-70
2023/01/21 02:32:57;;;;;;;37.92;19.45;;;;;;;;;;5061305;28;20068;-69
2023/01/21 02:35:26;;;;;;;37.78;22.85;;;;;;;;;;5055866;28;20090;-70
2023/01/21 02:37:52;;;;;;;43.00;22.05;;;;;;;;;;5059424;28;20139;-69
2023/01/21 02:40:24;;;;;;;36.45;20.67;;;;;;;;;;5057130;28;20049;-70
2023/01/21 02:42:58;;;;;;;42.20;22.17;;;;;;;;;;5069188;28;20037;-70
2023/01/21 02:45:31;;;;;;;39.50;20.88;;;;;;;;;;5060216;28;20037;-69
2023/01/21 02:48:05;;;;;;;36.10;20.00;;;;;;;;;;5061200;28;20036;-70
2023/01/21 02:50:51;;;;;;;39.33;21.15;;;;;;;;;;5056575;28;20033;-69
2023/01/21 02:53:35;;;;;;;37.42;20.90;;;;;;;;;;5057652;28;20402;-70
2023/01/21 02:56:05;;;;;;;31.75;20.88;;;;;;;;;;5054593;28;20043;-70
2023/01/21 02:58:36;;;;;;;40.05;22.20;;;;;;;;;;5063218;28;20033;-70
2023/01/21 03:01:05;;;;;;;32.03;19.13;;;;;;;;;;5062305;28;20506;-69
2023/01/21 03:03:31;;;;;;;33.80;20.15;;;;;;;;;;5051780;28;20041;-69
2023/01/21 03:05:57;;;;;;;35.20;20.48;;;;;;;;;;5061871;28;20040;-70
2023/01/21 03:08:41;;;;;;;31.83;19.33;;;;;;;;;;5054868;28;20144;-72
2023/01/21 03:11:17;;;;;;;33.30;18.02;;;;;;;;;;5060949;28;20036;-70
2023/01/21 03:16:57;;;;;;;31.30;19.77;;;;;;;;;;5063340;28;20041;-70
2023/01/21 03:19:39;;;;;;;39.22;20.27;;;;;;;;;;5060718;28;20063;-69
2023/01/21 03:22:10;;;;;;;38.60;22.33;;;;;;;;;;5067491;28;20128;-69
2023/01/21 03:24:37;;;;;;;31.65;21.00;;;;;;;;;;5063767;28;20040;-70
2023/01/21 03:27:04;;;;;;;34.92;20.17;;;;;;;;;;5079613;28;20043;-70
2023/01/21 03:29:31;;;;;;;35.28;19.23;;;;;;;;;;5066023;28;20502;-69
2023/01/21 03:32:01;;;;;;;34.67;18.95;;;;;;;;;;5064171;28;20033;-70
2023/01/21 03:34:30;;;;;;;33.60;21.08;;;;;;;;;;5064469;28;20056;-70
2023/01/21 03:37:02;;;;;;;34.78;20.33;;;;;;;;;;5063460;28;20060;-69
2023/01/21 03:39:28;;;;;;;40.08;20.25;;;;;;;;;;5055366;28;20033;-70
2023/01/21 03:41:54;;;;;;;39.17;22.27;;;;;;;;;;5062785;28;20084;-70
2023/01/21 03:44:21;;;;;;;30.60;20.92;;;;;;;;;;5066528;28;20067;-69
2023/01/21 03:47:01;;;;;;;39.95;21.98;;;;;;;;;;5063131;28;20043;-69
2023/01/21 03:49:34;;;;;;;32.10;19.05;;;;;;;;;;5062919;28;20086;-70
2023/01/21 03:52:01;;;;;;;34.15;19.85;;;;;;;;;;5057403;28;20045;-70
2023/01/21 03:54:27;;;;;;;35.80;20.65;;;;;;;;;;5065491;28;20474;-69
2023/01/21 03:56:53;;;;;;;39.25;21.17;;;;;;;;;;5061807;28;20044;-69
2023/01/21 03:59:19;;;;;;;35.17;21.40;;;;;;;;;;5064243;28;20131;-70
2023/01/21 04:01:46;;;;;;;36.75;21.42;;;;;;;;;;5042245;28;20040;-69
2023/01/21 04:04:12;;;;;;;39.90;23.08;;;;;;;;;;5062699;28;20567;-69
2023/01/21 04:06:38;;;;;;;34.63;20.65;;;;;;;;;;5061880;28;20048;-70
2023/01/21 04:09:05;;;;;;;34.22;19.90;;;;;;;;;;5082534;28;20498;-69
2023/01/21 04:11:31;;;;;;;40.33;22.10;;;;;;;;;;5063672;28;20036;-70
2023/01/21 04:13:57;;;;;;;38.97;21.88;;;;;;;;;;5062781;28;20510;-69
2023/01/21 04:16:23;;;;;;;34.90;21.58;;;;;;;;;;5067011;28;20040;-69
2023/01/21 04:18:49;;;;;;;36.33;21.45;;;;;;;;;;5074733;28;20044;-70
2023/01/21 04:21:15;;;;;;;41.75;22.38;;;;;;;;;;5065000;28;20053;-69
2023/01/21 04:23:41;;;;;;;39.30;20.65;;;;;;;;;;5064377;28;20032;-69
2023/01/21 04:26:08;;;;;;;39.60;24.15;;;;;;;;;;5065214;28;20111;-69
2023/01/21 04:28:34;;;;;;;34.22;20.58;;;;;;;;;;5064861;28;20627;-69
2023/01/21 04:31:00;;;;;;;29.27;18.48;;;;;;;;;;5060189;28;20152;-69
2023/01/21 04:33:26;;;;;;;36.28;20.98;;;;;;;;;;5060641;28;20036;-69
2023/01/21 04:35:56;;;;;;;34.40;20.85;;;;;;;;;;5062341;28;20457;-70
2023/01/21 04:38:22;;;;;;;36.35;20.67;;;;;;;;;;5054606;28;20037;-70
2023/01/21 04:40:49;;;;;;;45.60;23.63;;;;;;;;;;5068084;28;20446;-69
2023/01/21 04:43:15;;;;;;;34.75;20.63;;;;;;;;;;5057164;28;20047;-69
2023/01/21 04:45:41;;;;;;;41.65;24.10;;;;;;;;;;5065135;28;20073;-69
2023/01/21 04:48:07;;;;;;;42.45;22.92;;;;;;;;;;5064428;28;20028;-69
2023/01/21 04:50:33;;;;;;;38.38;21.35;;;;;;;;;;5059951;28;20041;-69
2023/01/21 04:52:59;;;;;;;41.95;23.30;;;;;;;;;;5055776;28;20136;-70
2023/01/21 04:55:25;;;;;;;41.75;22.30;;;;;;;;;;5061696;28;20085;-70
2023/01/21 04:57:52;;;;;;;39.25;24.13;;;;;;;;;;5063332;28;20484;-69
2023/01/21 05:00:18;;;;;;;43.47;25.23;;;;;;;;;;5069114;28;20487;-69
2023/01/21 05:02:44;;;;;;;38.33;22.48;;;;;;;;;;5063213;28;20048;-70
2023/01/21 05:05:10;;;;;;;41.70;24.58;;;;;;;;;;5062813;28;20123;-69
2023/01/21 05:07:36;;;;;;;44.63;25.10;;;;;;;;;;5068355;28;20037;-71
2023/01/21 05:10:02;;;;;;;45.00;24.77;;;;;;;;;;5063215;28;20041;-70
2023/01/21 05:12:29;;;;;;;46.47;25.60;;;;;;;;;;5062445;28;20037;-69
2023/01/21 05:14:58;;;;;;;48.42;24.83;;;;;;;;;;5071806;28;20047;-70
2023/01/21 05:17:25;;;;;;;45.15;25.30;;;;;;;;;;5067534;28;20040;-70
2023/01/21 05:19:51;;;;;;;46.00;25.65;;;;;;;;;;5063599;28;20051;-70
2023/01/21 05:22:17;;;;;;;37.17;21.50;;;;;;;;;;5063526;28;20047;-69
2023/01/21 05:24:43;;;;;;;44.30;24.38;;;;;;;;;;5059060;28;20371;-69
2023/01/21 05:27:09;;;;;;;47.08;26.17;;;;;;;;;;5067246;28;20040;-69
2023/01/21 05:29:36;;;;;;;44.75;23.42;;;;;;;;;;5059209;28;20044;-69
2023/01/21 05:32:02;;;;;;;50.67;26.83;;;;;;;;;;5064219;28;20414;-69
2023/01/21 05:34:28;;;;;;;48.95;28.40;;;;;;;;;;5060188;28;20064;-69
2023/01/21 05:36:54;;;;;;;41.28;26.25;;;;;;;;;;5062524;28;20673;-69
2023/01/21 05:39:20;;;;;;;41.92;23.65;;;;;;;;;;5059037;28;20041;-70
2023/01/21 05:41:46;;;;;;;42.15;25.35;;;;;;;;;;5059929;28;20504;-69
2023/01/21 05:44:12;;;;;;;45.95;25.35;;;;;;;;;;5063725;28;20059;-69
2023/01/21 05:46:39;;;;;;;37.38;22.55;;;;;;;;;;5058388;28;20036;-70
2023/01/21 05:49:05;;;;;;;44.30;25.10;;;;;;;;;;5063510;28;20036;-70
2023/01/21 05:51:31;;;;;;;38.85;24.45;;;;;;;;;;5060287;28;20036;-69
2023/01/21 05:53:57;;;;;;;43.53;24.95;;;;;;;;;;5060791;28;20040;-69
2023/01/21 05:56:23;;;;;;;44.17;26.40;;;;;;;;;;5065833;28;20043;-70
2023/01/21 05:58:50;;;;;;;50.85;26.50;;;;;;;;;;5063089;28;20040;-70
2023/01/21 06:01:16;;;;;;;39.53;25.13;;;;;;;;;;5053058;28;20048;-69
2023/01/21 06:03:42;;;;;;;46.70;26.10;;;;;;;;;;5064800;28;20050;-70
2023/01/21 06:06:08;;;;;;;39.28;25.52;;;;;;;;;;5066339;28;20036;-70
2023/01/21 06:08:34;;;;;;;44.30;25.77;;;;;;;;;;5061148;28;20428;-69
2023/01/21 06:11:00;;;;;;;41.20;24.60;;;;;;;;;;5074784;28;20084;-70
2023/01/21 06:13:26;;;;;;;43.35;24.38;;;;;;;;;;5049036;28;20036;-69
2023/01/21 06:15:57;;;;;;;44.13;24.45;;;;;;;;;;5061909;28;20047;-70
2023/01/21 06:18:24;;;;;;;46.35;25.95;;;;;;;;;;5057926;28;20223;-70
2023/01/21 06:20:50;;;;;;;39.25;23.67;;;;;;;;;;5057103;28;20321;-70
2023/01/21 06:23:16;;;;;;;37.72;22.08;;;;;;;;;;5058443;28;20622;-70
2023/01/21 06:25:42;;;;;;;45.75;23.67;;;;;;;;;;5061997;28;20032;-70
2023/01/21 06:28:12;;;;;;;46.22;27.02;;;;;;;;;;5056866;28;20048;-70
2023/01/21 06:30:38;;;;;;;38.75;22.63;;;;;;;;;;5056210;28;20051;-70
2023/01/21 06:33:04;;;;;;;34.10;19.75;;;;;;;;;;5054911;28;20091;-70
2023/01/21 06:35:31;;;;;;;46.50;24.08;;;;;;;;;;5056873;28;20522;-70
2023/01/21 06:37:57;;;;;;;46.22;23.77;;;;;;;;;;5070850;28;20498;-70
2023/01/21 06:40:23;;;;;;;42.40;25.02;;;;;;;;;;5065187;28;20044;-69
2023/01/21 06:42:49;;;;;;;46.25;28.58;;;;;;;;;;5057812;28;20470;-70
2023/01/21 06:45:15;;;;;;;43.55;25.13;;;;;;;;;;5060327;28;20577;-70
2023/01/21 06:47:42;;;;;;;42.45;24.20;;;;;;;;;;5062714;28;20080;-70
2023/01/21 06:50:10;;;;;;;41.33;23.83;;;;;;;;;;5065012;28;20123;-69
2023/01/21 06:52:36;;;;;;;39.35;23.80;;;;;;;;;;5065557;28;20098;-70
2023/01/21 06:55:02;;;;;;;35.33;21.02;;;;;;;;;;5063672;28;20032;-70
2023/01/21 06:57:29;;;;;;;39.30;24.17;;;;;;;;;;5061100;28;20048;-70
2023/01/21 06:59:55;;;;;;;36.35;22.83;;;;;;;;;;5063613;28;20037;-70
2023/01/21 07:02:21;;;;;;;42.10;24.85;;;;;;;;;;5062451;28;20041;-70
2023/01/21 07:04:50;;;;;;;38.20;24.40;;;;;;;;;;5065198;28;20073;-69
2023/01/21 07:07:16;;;;;;;38.33;23.35;;;;;;;;;;5065165;28;20046;-70
2023/01/21 07:09:42;;;;;;;40.05;24.35;;;;;;;;;;5060135;28;20429;-69
2023/01/21 07:12:08;;;;;;;37.88;23.38;;;;;;;;;;5060910;28;20037;-69
2023/01/21 07:14:34;;;;;;;49.45;24.58;;;;;;;;;;5064140;28;20581;-70
2023/01/21 07:17:01;;;;;;;48.58;26.17;;;;;;;;;;5056979;28;20036;-70
2023/01/21 07:19:27;;;;;;;41.78;25.95;;;;;;;;;;5060389;28;20056;-70
2023/01/21 07:21:53;;;;;;;43.85;25.05;;;;;;;;;;5053499;28;20856;-70
2023/01/21 07:24:20;;;;;;;45.30;24.17;;;;;;;;;;5055899;28;20142;-70
2023/01/21 07:26:47;;;;;;;40.60;21.63;;;;;;;;;;5052923;28;20120;-69
2023/01/21 07:29:13;;;;;;;43.08;24.42;;;;;;;;;;5052396;28;20045;-69
2023/01/21 07:31:39;;;;;;;39.10;22.85;;;;;;;;;;5057920;28;20041;-70
2023/01/21 07:34:05;;;;;;;46.00;24.30;;;;;;;;;;5056457;28;20486;-70
2023/01/21 07:36:31;;;;;;;42.90;24.85;;;;;;;;;;5052458;28;20040;-70
2023/01/21 07:38:57;;;;;;;40.55;24.67;;;;;;;;;;5054590;28;20145;-70
2023/01/21 07:41:24;;;;;;;41.08;25.05;;;;;;;;;;5068857;28;20056;-69
2023/01/21 07:43:50;;;;;;;45.35;25.73;;;;;;;;;;5056808;28;20414;-70
2023/01/21 07:46:20;;;;;;;48.08;26.67;;;;;;;;;;5055676;28;20501;-70
2023/01/21 07:48:47;;;;;;;43.20;25.23;;;;;;;;;;5052185;28;20047;-69
2023/01/21 07:51:13;;;;;;;40.25;20.83;;;;;;;;;;5049935;28;20086;-70
2023/01/21 07:53:39;;;;;;;41.55;25.70;;;;;;;;;;5054842;28;20040;-71
2023/01/21 07:56:06;;;;;;;41.97;23.63;;;;;;;;;;5055139;28;20090;-69
2023/01/21 07:58:32;;;;;;;42.17;23.25;;;;;;;;;;5056859;28;20040;-69
2023/01/21 08:00:59;;;;;;;42.10;24.35;;;;;;;;;;5052466;28;20188;-69
2023/01/21 08:03:25;;;;;;;40.83;24.55;;;;;;;;;;5055181;28;20044;-69
2023/01/21 08:05:51;;;;;;;51.75;27.33;;;;;;;;;;5052998;28;20146;-69
2023/01/21 08:08:18;;;;;;;47.25;25.58;;;;;;;;;;5055679;28;20127;-69
2023/01/21 08:10:44;;;;;;;49.03;25.63;;;;;;;;;;5052250;28;20510;-69
2023/01/21 08:13:10;;;;;;;48.88;25.98;;;;;;;;;;5057313;28;20033;-70
2023/01/21 08:15:36;;;;;;;44.50;25.35;;;;;;;;;;5060809;28;20486;-69
2023/01/21 08:18:02;;;;;;;42.95;25.95;;;;;;;;;;5053737;28;20160;-70
2023/01/21 08:20:29;;;;;;;47.40;27.08;;;;;;;;;;5062827;28;20112;-70
2023/01/21 08:22:59;;;;;;;48.75;27.42;;;;;;;;;;5063965;28;20109;-70
2023/01/21 08:25:25;;;;;;;43.60;25.20;;;;;;;;;;5053871;28;20040;-70
2023/01/21 08:27:51;;;;;;;41.70;25.42;;;;;;;;;;5055686;28;20047;-70
2023/01/21 08:30:17;;;;;;;45.10;25.73;;;;;;;;;;5053715;28;20072;-69
2023/01/21 08:32:44;;;;;;;44.50;25.20;;;;;;;;;;5050955;28;20124;-69
2023/01/21 08:35:11;;;;;;;43.92;25.00;;;;;;;;;;5053743;28;20033;-69
2023/01/21 08:37:38;;;;;;;47.85;25.80;;;;;;;;;;5056426;28;20045;-70
2023/01/21 08:40:05;;;;;;;42.05;24.60;;;;;;;;;;5063394;28;20051;-69
2023/01/21 08:42:31;;;;;;;44.80;25.48;;;;;;;;;;5063756;28;20533;-70
2023/01/21 08:44:57;;;;;;;45.10;27.92;;;;;;;;;;5057376;28;20049;-69
2023/01/21 08:47:23;;;;;;;45.65;25.70;;;;;;;;;;5065695;28;20044;-69
2023/01/21 08:49:49;;;;;;;43.88;25.33;;;;;;;;;;5065431;28;20045;-70
2023/01/21 08:52:19;;;;;;;49.10;28.23;;;;;;;;;;5058959;28;20076;-69
2023/01/21 08:54:45;;;;;;;47.35;24.30;;;;;;;;;;5054708;28;20032;-71
2023/01/21 08:57:12;;;;;;;42.72;25.88;;;;;;;;;;5049999;28;20037;-69
2023/01/21 08:59:38;;;;;;;53.58;30.38;;;;;;;;;;5056359;28;20041;-70
2023/01/21 09:02:04;;;;;;;45.70;27.60;;;;;;;;;;5063652;28;20040;-70
2023/01/21 09:04:31;;;;;;;43.97;28.45;;;;;;;;;;5069488;28;20037;-69
2023/01/21 09:06:57;;;;;;;48.15;26.60;;;;;;;;;;5053545;28;20056;-69
2023/01/21 09:09:23;;;;;;;53.05;28.65;;;;;;;;;;5061603;28;20091;-69
2023/01/21 09:11:51;;;;;;;46.13;27.67;;;;;;;;;;5035970;28;20057;-69
2023/01/21 09:14:17;;;;;;;51.97;28.33;;;;;;;;;;5056703;28;20529;-69
2023/01/21 09:16:43;;;;;;;55.78;29.65;;;;;;;;;;5060906;28;20131;-69
2023/01/21 09:19:10;;;;;;;46.75;24.20;;;;;;;;;;5055999;28;20088;-69
2023/01/21 09:21:36;;;;;;;54.30;29.88;;;;;;;;;;5054529;28;20099;-70
2023/01/21 09:24:03;;;;;;;63.28;29.10;;;;;;;;;;5064750;28;20429;-70
2023/01/21 09:26:29;;;;;;;56.53;27.95;;;;;;;;;;5053000;28;20387;-69
2023/01/21 09:28:57;;;;;;;49.75;28.13;;;;;;;;;;5050810;28;20045;-69
2023/01/21 09:31:24;;;;;;;50.60;27.92;;;;;;;;;;5053070;28;20029;-69
2023/01/21 09:33:52;;;;;;;51.25;28.25;;;;;;;;;;5052183;28;20120;-69
2023/01/21 09:36:19;;;;;;;53.17;29.08;;;;;;;;;;5054249;28;20033;-70
2023/01/21 09:38:46;;;;;;;52.50;30.30;;;;;;;;;;5055886;28;20403;-70
2023/01/21 09:41:29;;;;;;;49.10;28.05;;;;;;;;;;5052705;28;20109;-70
2023/01/21 09:44:03;;;;;;;49.55;27.42;;;;;;;;;;5057390;28;20566;-70
2023/01/21 09:46:48;;;;;;;49.35;27.27;;;;;;;;;;5060198;28;20083;-70
2023/01/21 09:49:18;;;;;;;58.35;29.02;;;;;;;;;;5049781;28;20490;-70
2023/01/21 09:51:44;;;;;;;49.05;30.05;;;;;;;;;;5053307;28;20033;-70
2023/01/21 09:54:42;;;;;;;47.83;29.42;;;;;;;;;;5051330;28;20033;-70
2023/01/21 09:57:14;;;;;;;51.33;28.65;;;;;;;;;;5054504;28;20044;-70
2023/01/21 09:59:53;;;;;;;51.37;28.80;;;;;;;;;;5056794;28;20056;-70
2023/01/21 10:02:22;;;;;;;51.78;28.90;;;;;;;;;;5058112;28;20642;-70
2023/01/21 10:04:52;;;;;;;61.83;28.88;;;;;;;;;;5058388;28;20033;-70
2023/01/21 10:07:23;;;;;;;52.22;27.80;;;;;;;;;;5059157;28;20048;-71
2023/01/21 10:09:52;;;;;;;51.95;27.55;;;;;;;;;;5062648;28;20055;-70
2023/01/21 10:12:37;;;;;;;42.53;24.27;;;;;;;;;;5060941;28;20040;-71
2023/01/21 10:15:21;;;;;;;49.38;28.08;;;;;;;;;;5062097;28;20137;-71
2023/01/21 10:18:00;;;;;;;44.15;28.50;;;;;;;;;;5063055;28;20525;-71
2023/01/21 10:20:28;;;;;;;50.83;27.17;;;;;;;;;;5059690;28;20044;-71
2023/01/21 10:22:57;;;;;;;51.50;28.67;;;;;;;;;;5060677;28;20394;-71
2023/01/21 10:25:25;;;;;;;47.95;25.92;;;;;;;;;;5057515;28;20386;-71
2023/01/21 10:27:52;;;;;;;49.75;27.70;;;;;;;;;;5065676;28;20053;-71
2023/01/21 10:30:18;;;;;;;47.47;28.08;;;;;;;;;;5068001;28;20074;-71
2023/01/21 10:32:45;;;;;;;42.20;25.30;;;;;;;;;;5053317;28;20041;-71
2023/01/21 10:35:17;;;;;;;45.22;24.77;;;;;;;;;;5064852;28;20033;-70
2023/01/21 10:37:52;;;;;;;46.47;24.17;;;;;;;;;;5057944;28;20042;-71
2023/01/21 10:43:39;;;;;;;36.83;22.52;;;;;;;;;;5056716;28;20048;-70
2023/01/21 10:46:24;;;;;;;40.42;24.20;;;;;;;;;;5033102;28;20056;-70
2023/01/21 10:49:11;;;;;;;30.77;20.13;;;;;;;;;;5059447;28;20470;-70
2023/01/21 10:51:45;;;;;;;36.53;22.00;;;;;;;;;;5057743;28;20469;-70
2023/01/21 10:54:11;;;;;;;34.25;20.35;;;;;;;;;;5056898;28;20033;-70
2023/01/21 10:57:03;;;;;;;32.55;20.63;;;;;;;;;;5062329;28;20044;-70
2023/01/21 10:59:32;;;;;;;39.83;24.10;;;;;;;;;;5053822;28;20592;-70
2023/01/21 11:02:13;;;;;;;40.58;23.17;;;;;;;;;;5060730;28;20105;-70
2023/01/21 11:04:40;;;;;;;34.35;20.95;;;;;;;;;;5065654;28;20044;-70
2023/01/21 11:07:08;;;;;;;30.38;18.20;;;;;;;;;;5060753;28;21658;-70
2023/01/21 11:09:37;;;;;;;32.58;20.10;;;;;;;;;;5058403;28;20064;-71
2023/01/21 11:12:03;;;;;;;31.73;20.33;;;;;;;;;;5058683;28;20477;-71
2023/01/21 11:14:29;;;;;;;36.35;17.85;;;;;;;;;;5054870;28;20474;-70
2023/01/21 11:16:55;;;;;;;32.20;19.75;;;;;;;;;;5063841;28;20049;-69
2023/01/21 11:19:27;;;;;;;29.17;17.35;;;;;;;;;;5051817;28;20131;-70
2023/01/21 11:22:00;;;;;;;27.50;14.95;;;;;;;;;;5060332;28;20044;-70
2023/01/21 11:24:26;;;;;;;28.52;17.90;;;;;;;;;;5059512;28;21279;-70
2023/01/21 11:26:58;;;;;;;29.55;16.27;;;;;;;;;;5058073;28;20036;-71
2023/01/21 11:29:24;;;;;;;27.58;14.77;;;9.20;98.60;;;;;;5059545;28;20044;-70
2023/01/21 11:32:04;;;;;;;20.92;13.65;;;8.20;99.90;;;;;;5056308;28;20041;-71
2023/01/21 11:34:30;;;;;;;19.63;13.02;;;;;;;;;;5050894;28;20083;-71
2023/01/21 11:36:56;;;;;;;20.45;12.18;;;;;;;;;;5058513;28;20371;-70
2023/01/21 11:39:27;;;;;;;17.50;11.90;;;;;;;;;;5063853;28;20465;-70
2023/01/21 11:41:54;;;;;;;20.00;10.55;;;;;;;;;;5063790;28;20146;-71
2023/01/21 11:44:21;;;;;;;18.08;10.88;;;;;;;;;;5057987;28;20128;-69
2023/01/21 11:46:48;;;;;;;17.35;11.85;;;;;;;;;;5066208;28;20059;-70
2023/01/21 11:49:26;;;;;;;19.13;12.02;;;9.50;99.90;;;;;;5054778;28;20033;-71
2023/01/21 11:52:14;;;;;;;16.48;10.88;;;8.60;99.90;;;;;;5065445;28;20047;-70
2023/01/21 11:54:40;;;;;;;15.02;10.48;;;9.20;99.90;;;;;;5063191;28;20037;-70
2023/01/21 11:57:17;;;;;;;12.48;9.98;;;;;;;;;;5066877;28;20048;-70
2023/01/21 11:59:46;;;;;;;14.48;9.43;;;9.90;99.90;;;;;;5069695;28;20037;-70
2023/01/21 12:02:15;;;;;;;17.40;9.30;;;;;;;;;;5065132;28;20045;-69
2023/01/21 12:04:46;;;;;;;10.75;7.88;;;;;;;;;;5058995;28;20036;-70
2023/01/21 12:07:24;;;;;;;10.82;7.28;;;;;;;;;;5064909;28;20047;-70
2023/01/21 12:10:07;;;;;;;13.15;7.50;;;11.20;99.90;;;;;;5066549;28;20041;-69
2023/01/21 12:12:51;;;;;;;14.63;7.25;;;11.80;99.30;;;;;;5060500;28;20041;-71
2023/01/21 12:16:02;;;;;;;11.35;8.55;;;12.10;99.90;;;;;;5064050;28;20059;-69
2023/01/21 12:18:48;;;;;;;10.05;7.10;;;12.40;97.80;;;;;;5054920;28;20048;-70
2023/01/21 12:21:32;;;;;;;9.35;6.72;;;12.60;98.10;;;;;;5060785;28;20045;-70
2023/01/21 12:24:19;;;;;;;9.20;6.85;;;12.50;97.40;;;;;;5071908;28;20461;-70
2023/01/21 12:27:00;;;;;;;10.55;7.07;;;12.50;97.30;;;;;;5057334;28;20491;-69
2023/01/21 12:29:44;;;;;;;9.93;6.38;;;12.30;96.20;;;;;;5054288;28;20137;-70
2023/01/21 12:32:28;;;;;;;9.68;6.65;;;12.20;94.70;;;;;;5063798;28;20036;-70
2023/01/21 12:35:03;;;;;;;9.25;6.60;;;12.20;96.50;;;;;;5058874;28;20049;-70
2023/01/21 12:37:32;;;;;;;12.95;7.55;;;12.00;95.40;;;;;;5053974;28;20059;-69
2023/01/21 12:40:01;;;;;;;9.90;6.75;;;;;;;;;;5057607;28;20152;-70
2023/01/21 12:42:33;;;;;;;11.95;6.75;;;;;;;;;;5066398;28;20037;-70
2023/01/21 12:45:09;;;;;;;9.70;6.40;;;;;;;;;;5061962;28;20044;-70
2023/01/21 12:47:39;;;;;;;9.55;6.35;;;;;;;;;;5056835;28;20132;-70
2023/01/21 12:50:38;;;;;;;10.30;7.10;;;12.00;96.70;;;;;;5059609;28;20189;-70
2023/01/21 12:53:17;;;;;;;9.63;6.95;;;11.70;95.50;;;;;;5061589;28;20306;-70
2023/01/21 12:56:03;;;;;;;12.20;7.55;;;11.60;95.90;;;;;;5062174;28;20397;-70
2023/01/21 12:58:32;;;;;;;11.20;6.90;;;11.50;96.30;;;;;;5059198;28;20075;-70
2023/01/21 13:01:04;;;;;;;10.30;6.53;;;11.50;96.90;;;;;;5061237;28;20506;-70
2023/01/21 13:03:58;;;;;;;8.85;5.88;;;11.30;96.20;;;;;;5047788;28;20435;-70
2023/01/21 13:06:42;;;;;;;8.10;6.15;;;11.10;94.40;;;;;;5065224;28;20070;-70
2023/01/21 13:10:00;;;;;;;8.73;5.88;;;10.70;94.70;;;;;;5062296;28;20032;-70
2023/01/21 13:12:29;;;;;;;9.05;6.68;;;10.30;94.90;;;;;;5013659;28;20114;-70
2023/01/21 13:15:12;;;;;;;6.60;5.88;;;9.90;98.30;;;;;;5016895;28;20455;-70
2023/01/21 13:17:42;;;;;;;9.50;6.22;;;9.70;98.30;;;;;;5046020;28;20052;-71
2023/01/21 13:20:21;;;;;;;10.43;5.63;;;9.40;98.70;;;;;;5055558;28;20060;-70
2023/01/21 13:23:05;;;;;;;8.63;5.80;;;9.10;97.80;;;;;;5057816;28;20059;-70
2023/01/21 13:25:48;;;;;;;7.93;5.55;;;8.90;99.70;;;;;;5054268;28;20128;-70
2023/01/21 13:28:25;;;;;;;8.25;5.32;;;8.50;99.50;;;;;;5057252;28;20075;-70
2023/01/21 13:31:05;;;;;;;8.85;5.63;;;8.30;99.90;;;;;;5058273;28;20098;-70
2023/01/21 13:33:46;;;;;;;9.38;6.10;;;8.10;99.90;;;;;;5053913;28;20542;-71
2023/01/21 13:36:24;;;;;;;8.32;5.68;;;;;;;;;;5051830;28;20029;-71
2023/01/21 13:39:09;;;;;;;10.73;8.05;;;;;;;;;;5049557;28;20611;-71
2023/01/21 13:41:54;;;;;;;7.40;5.85;;;;;;;;;;5055458;28;20101;-71
2023/01/21 13:44:55;;;;;;;9.38;6.15;;;;;;;;;;5056127;28;21104;-70
2023/01/21 13:47:45;;;;;;;10.50;6.78;;;;;;;;;;5027186;28;20049;-70
2023/01/21 13:50:21;;;;;;;7.60;5.00;;;;;;;;;;5057048;28;20041;-70
2023/01/21 13:52:50;;;;;;;9.18;6.30;;;;;;;;;;5054997;28;20036;-70
2023/01/21 13:55:25;;;;;;;10.60;7.32;;;;;;;;;;5056276;28;20044;-70
2023/01/21 13:58:04;;;;;;;11.75;7.32;;;;;;;;;;5051382;28;20056;-70
2023/01/21 14:00:39;;;;;;;8.65;6.82;;;;;;;;;;5063434;28;20119;-70
2023/01/21 14:03:12;;;;;;;7.63;5.95;;;;;;;;;;5054652;28;20128;-70
2023/01/21 14:05:51;;;;;;;8.60;6.72;;;;;;;;;;5062970;28;20044;-70
2023/01/21 14:08:52;;;;;;;10.77;6.68;;;7.80;99.90;;;;;;5066669;28;20052;-70
2023/01/21 14:11:21;;;;;;;9.00;6.30;;;;;;;;;;5058184;28;20040;-70
2023/01/21 14:14:18;;;;;;;8.30;5.95;;;13.10;84.40;;;;;;5066694;28;20072;-71
2023/01/21 14:17:03;;;;;;;9.35;6.47;;;;;;;;;;5066269;28;20055;-71
2023/01/21 14:19:41;;;;;;;8.68;6.40;;;;;;;;;;5059353;28;20045;-71
2023/01/21 14:22:13;;;;;;;8.23;6.00;;;11.40;91.20;;;;;;5063122;28;20103;-70
2023/01/21 14:24:42;;;;;;;7.78;6.10;;;;;;;;;;5066492;28;20048;-70
2023/01/21 14:27:16;;;;;;;9.82;5.75;;;;;;;;;;5058877;28;20044;-70
2023/01/21 14:29:46;;;;;;;8.13;6.00;;;;;;;;;;5061179;28;20051;-70
2023/01/21 14:32:19;;;;;;;8.65;6.38;;;;;;;;;;5065164;28;20040;-70
2023/01/21 14:34:48;;;;;;;8.82;6.45;;;;;;;;;;5055700;28;20167;-71